createdAt,value
2018-05-11T00:00:20.455Z,13.40
2018-05-11T00:02:51.023Z,13.40
2018-05-11T00:05:21.233Z,13.40
2018-05-11T00:07:50.657Z,13.40
2018-05-11T00:10:22.840Z,13.30
2018-05-11T00:12:51.950Z,13.00
2018-05-11T00:15:20.960Z,13.20
2018-05-11T00:17:50.023Z,13.40
2018-05-11T00:20:19.100Z,13.50
2018-05-11T00:22:49.955Z,13.50
2018-05-11T00:25:20.651Z,13.40
2018-05-11T00:27:50.600Z,13.40
2018-05-11T00:30:19.613Z,13.50
2018-05-11T00:32:48.656Z,13.50
2018-05-11T00:35:17.703Z,13.50
2018-05-11T00:37:46.715Z,13.50
2018-05-11T00:40:16.028Z,13.60
2018-05-11T00:42:45.088Z,13.40
2018-05-11T00:45:14.121Z,13.40
2018-05-11T00:47:43.950Z,13.50
2018-05-11T00:50:13.770Z,13.40
2018-05-11T00:52:43.037Z,13.40
2018-05-11T00:55:29.846Z,13.30
2018-05-11T00:57:59.619Z,13.30
2018-05-11T01:00:28.970Z,13.10
2018-05-11T01:02:58.752Z,13.00
2018-05-11T01:05:27.824Z,13.10
2018-05-11T01:07:56.840Z,13.20
2018-05-11T01:10:25.851Z,13.00
2018-05-11T01:12:55.691Z,13.10
2018-05-11T01:15:24.703Z,13.00
2018-05-11T01:17:53.947Z,13.00
2018-05-11T01:20:22.984Z,13.00
2018-05-11T01:22:52.012Z,12.90
2018-05-11T01:25:21.036Z,12.90
2018-05-11T01:27:50.091Z,12.90
2018-05-11T01:30:19.107Z,12.80
2018-05-11T01:32:48.111Z,12.90
2018-05-11T01:35:17.828Z,12.80
2018-05-11T01:37:47.068Z,12.90
2018-05-11T01:40:16.108Z,12.90
2018-05-11T01:42:46.655Z,12.90
2018-05-11T01:45:16.520Z,12.80
2018-05-11T01:47:45.560Z,12.80
2018-05-11T01:50:15.336Z,12.80
2018-05-11T01:52:44.392Z,12.80
2018-05-11T01:55:13.450Z,13.00
2018-05-11T01:57:43.391Z,12.80
2018-05-11T02:00:12.429Z,12.80
2018-05-11T02:02:41.436Z,12.90
2018-05-11T02:05:10.498Z,12.90
2018-05-11T02:07:39.535Z,12.90
2018-05-11T02:10:09.313Z,12.90
2018-05-11T02:12:38.369Z,12.80
2018-05-11T02:15:07.378Z,12.60
2018-05-11T02:17:36.432Z,12.70
2018-05-11T02:20:06.209Z,12.60
2018-05-11T02:22:35.241Z,12.50
2018-05-11T02:25:05.085Z,12.30
2018-05-11T02:27:34.090Z,12.10
2018-05-11T02:30:03.128Z,12.00
2018-05-11T02:32:32.948Z,12.00
2018-05-11T02:35:01.962Z,11.80
2018-05-11T02:37:31.007Z,11.90
2018-05-11T02:40:00.021Z,11.90
2018-05-11T02:42:29.064Z,11.90
2018-05-11T02:44:58.071Z,11.90
2018-05-11T02:47:27.083Z,11.90
2018-05-11T02:49:56.166Z,11.70
2018-05-11T02:52:25.171Z,11.50
2018-05-11T02:54:54.955Z,11.60
2018-05-11T02:57:24.007Z,11.40
2018-05-11T02:59:53.030Z,11.50
2018-05-11T03:02:22.089Z,11.20
2018-05-11T03:04:51.135Z,11.20
2018-05-11T03:07:20.152Z,11.10
2018-05-11T03:09:49.971Z,11.10
2018-05-11T03:12:18.991Z,10.90
2018-05-11T03:14:48.079Z,11.00
2018-05-11T03:17:17.092Z,10.80
2018-05-11T03:19:46.107Z,10.90
2018-05-11T03:22:15.151Z,10.90
2018-05-11T03:24:44.923Z,10.80
2018-05-11T03:27:13.947Z,10.70
2018-05-11T03:29:42.995Z,10.60
2018-05-11T03:32:12.047Z,10.80
2018-05-11T03:34:41.824Z,10.40
2018-05-11T03:37:10.865Z,10.60
2018-05-11T03:39:39.896Z,10.70
2018-05-11T03:42:08.966Z,10.70
2018-05-11T03:44:37.979Z,10.70
2018-05-11T03:47:06.990Z,10.70
2018-05-11T03:49:36.056Z,10.80
2018-05-11T03:52:05.066Z,10.80
2018-05-11T03:54:34.078Z,10.50
2018-05-11T03:57:03.127Z,10.60
2018-05-11T03:59:32.163Z,10.70
2018-05-11T04:02:18.979Z,10.70
2018-05-11T04:05:06.503Z,10.70
2018-05-11T04:10:41.388Z,10.40
2018-05-11T04:13:10.479Z,10.50
2018-05-11T04:15:39.431Z,10.50
2018-05-11T04:18:08.466Z,10.50
2018-05-11T04:20:37.511Z,10.60
2018-05-11T04:23:06.538Z,10.60
2018-05-11T04:25:36.372Z,10.10
2018-05-11T04:28:05.395Z,10.20
2018-05-11T04:30:34.440Z,10.30
2018-05-11T04:33:03.446Z,10.30
2018-05-11T04:35:32.488Z,10.40
2018-05-11T04:38:01.503Z,10.40
2018-05-11T04:40:30.552Z,10.60
2018-05-11T04:42:59.566Z,10.60
2018-05-11T04:45:28.571Z,10.70
2018-05-11T04:47:57.603Z,10.70
2018-05-11T04:50:26.627Z,10.80
2018-05-11T04:52:55.697Z,10.90
2018-05-11T04:55:24.753Z,10.70
2018-05-11T04:57:53.758Z,10.60
2018-05-11T05:00:22.811Z,10.40
2018-05-11T05:02:51.823Z,10.50
2018-05-11T05:05:20.871Z,10.60
2018-05-11T05:07:49.887Z,10.90
2018-05-11T05:10:18.935Z,10.60
2018-05-11T05:12:47.938Z,10.50
2018-05-11T05:15:17.112Z,10.70
2018-05-11T05:17:46.119Z,10.80
2018-05-11T05:20:17.823Z,10.60
2018-05-11T05:22:48.005Z,10.60
2018-05-11T05:25:17.044Z,10.60
2018-05-11T05:27:49.284Z,10.80
2018-05-11T05:30:18.327Z,11.00
2018-05-11T05:32:48.103Z,11.10
2018-05-11T05:35:17.163Z,11.40
2018-05-11T05:37:46.174Z,11.40
2018-05-11T05:40:15.191Z,11.70
2018-05-11T05:42:44.580Z,11.70
2018-05-11T05:45:13.596Z,12.00
2018-05-11T05:47:42.623Z,11.90
2018-05-11T05:50:11.701Z,12.20
2018-05-11T05:52:41.502Z,12.50
2018-05-11T05:55:10.511Z,12.60
2018-05-11T05:57:40.324Z,12.70
2018-05-11T06:00:09.352Z,12.70
2018-05-11T06:02:38.395Z,12.80
2018-05-11T06:05:08.184Z,12.80
2018-05-11T06:07:37.246Z,13.00
2018-05-11T06:10:06.284Z,13.30
2018-05-11T06:12:35.295Z,13.40
2018-05-11T06:15:05.091Z,13.50
2018-05-11T06:17:34.168Z,13.70
2018-05-11T06:20:03.209Z,13.90
2018-05-11T06:22:32.217Z,14.10
2018-05-11T06:25:01.223Z,14.40
2018-05-11T06:27:30.291Z,14.80
2018-05-11T06:29:59.299Z,15.10
2018-05-11T06:32:28.315Z,15.30
2018-05-11T06:34:57.362Z,15.40
2018-05-11T06:37:26.420Z,15.60
2018-05-11T06:39:55.442Z,15.70
2018-05-11T06:42:25.330Z,15.80
2018-05-11T06:44:54.299Z,15.60
2018-05-11T06:47:23.331Z,15.90
2018-05-11T06:49:53.169Z,15.70
2018-05-11T06:52:22.183Z,15.90
2018-05-11T06:54:51.219Z,15.20
2018-05-11T06:57:20.296Z,15.80
2018-05-11T06:59:49.355Z,15.70
2018-05-11T07:02:18.399Z,16.10
2018-05-11T07:04:47.423Z,16.10
2018-05-11T07:07:17.276Z,16.50
2018-05-11T07:09:46.320Z,16.80
2018-05-11T07:12:16.108Z,17.10
2018-05-11T07:14:45.171Z,17.50
2018-05-11T07:17:14.231Z,17.60
2018-05-11T07:19:43.252Z,18.00
2018-05-11T07:22:13.255Z,17.80
2018-05-11T07:24:42.268Z,17.80
2018-05-11T07:27:11.328Z,17.70
2018-05-11T07:29:41.101Z,17.80
2018-05-11T07:32:10.151Z,18.20
2018-05-11T07:34:39.228Z,18.20
2018-05-11T07:37:08.275Z,17.40
2018-05-11T07:39:37.386Z,17.40
2018-05-11T07:42:06.514Z,17.90
2018-05-11T07:44:35.700Z,18.20
2018-05-11T07:47:04.768Z,18.00
2018-05-11T07:49:33.828Z,17.50
2018-05-11T07:52:02.863Z,18.10
2018-05-11T07:54:31.926Z,18.30
2018-05-11T07:57:01.011Z,18.30
2018-05-11T07:59:30.172Z,18.40
2018-05-11T08:02:00.256Z,17.90
2018-05-11T08:04:29.299Z,18.40
2018-05-11T08:06:58.367Z,18.40
2018-05-11T08:09:27.407Z,19.00
2018-05-11T08:11:56.469Z,18.50
2018-05-11T08:14:26.405Z,18.40
2018-05-11T08:16:55.359Z,17.80
2018-05-11T08:19:24.381Z,17.60
2018-05-11T08:21:54.202Z,17.60
2018-05-11T08:24:23.218Z,18.00
2018-05-11T08:26:52.329Z,18.30
2018-05-11T08:29:22.055Z,18.50
2018-05-11T08:31:51.228Z,18.70
2018-05-11T08:34:20.240Z,18.70
2018-05-11T08:36:49.266Z,19.10
2018-05-11T08:39:18.335Z,19.00
2018-05-11T08:41:47.375Z,18.40
2018-05-11T08:44:16.492Z,18.10
2018-05-11T08:46:45.521Z,18.20
2018-05-11T08:49:14.540Z,18.40
2018-05-11T08:51:43.592Z,18.70
2018-05-11T08:54:12.636Z,18.60
2018-05-11T08:56:41.658Z,19.10
2018-05-11T08:59:11.150Z,19.30
2018-05-11T09:01:41.467Z,19.40
2018-05-11T09:04:10.663Z,19.20
2018-05-11T09:06:39.691Z,18.70
2018-05-11T09:09:08.739Z,18.90
2018-05-11T09:11:37.767Z,19.40
2018-05-11T09:14:06.815Z,19.40
2018-05-11T09:16:36.607Z,19.60
2018-05-11T09:19:05.670Z,19.90
2018-05-11T09:21:34.699Z,19.60
2018-05-11T09:24:03.768Z,19.50
2018-05-11T09:26:32.790Z,19.90
2018-05-11T09:29:01.838Z,19.80
2018-05-11T09:31:30.856Z,19.60
2018-05-11T09:33:59.903Z,19.60
2018-05-11T09:36:28.917Z,19.30
2018-05-11T09:38:57.963Z,19.20
2018-05-11T09:41:26.978Z,19.10
2018-05-11T09:43:56.113Z,19.30
2018-05-11T09:46:25.124Z,19.30
2018-05-11T09:48:55.592Z,19.70
2018-05-11T09:51:25.389Z,20.00
2018-05-11T09:53:54.399Z,20.10
2018-05-11T09:56:24.223Z,19.80
2018-05-11T09:58:53.566Z,20.10
2018-05-11T10:01:22.619Z,20.00
2018-05-11T10:03:51.649Z,20.40
2018-05-11T10:06:20.711Z,20.30
2018-05-11T10:08:49.749Z,20.00
2018-05-11T10:11:18.796Z,19.90
2018-05-11T10:13:47.844Z,20.00
2018-05-11T10:16:16.871Z,20.50
2018-05-11T10:18:46.668Z,20.50
2018-05-11T10:21:15.723Z,20.60
2018-05-11T10:23:44.757Z,20.90
2018-05-11T10:26:13.800Z,20.70
2018-05-11T10:28:42.820Z,21.20
2018-05-11T10:31:11.875Z,21.50
2018-05-11T10:33:40.896Z,21.90
2018-05-11T10:36:09.944Z,21.70
2018-05-11T10:38:38.962Z,21.70
2018-05-11T10:41:08.033Z,21.40
2018-05-11T10:43:37.843Z,21.00
2018-05-11T10:46:06.855Z,21.00
2018-05-11T10:48:36.006Z,20.80
2018-05-11T10:51:05.699Z,20.90
2018-05-11T10:53:34.721Z,20.70
2018-05-11T10:56:03.765Z,21.10
2018-05-11T10:58:32.779Z,21.00
2018-05-11T11:01:01.829Z,20.90
2018-05-11T11:03:30.845Z,21.10
2018-05-11T11:05:59.895Z,21.20
2018-05-11T11:08:29.678Z,21.10
2018-05-11T11:10:58.694Z,21.20
2018-05-11T11:13:28.534Z,21.30
2018-05-11T11:15:57.539Z,21.30
2018-05-11T11:18:26.651Z,21.40
2018-05-11T11:20:55.729Z,21.80
2018-05-11T11:23:24.740Z,21.60
2018-05-11T11:25:53.770Z,21.50
2018-05-11T11:28:22.833Z,21.10
2018-05-11T11:30:51.840Z,21.30
2018-05-11T11:33:20.867Z,21.30
2018-05-11T11:35:50.693Z,21.40
2018-05-11T11:38:20.511Z,21.70
2018-05-11T11:40:49.566Z,21.70
2018-05-11T11:43:18.652Z,22.20
2018-05-11T11:45:47.692Z,22.20
2018-05-11T11:48:16.711Z,22.20
2018-05-11T11:50:45.795Z,22.50
2018-05-11T11:53:14.803Z,22.80
2018-05-11T11:55:43.815Z,22.90
2018-05-11T11:58:12.859Z,22.90
2018-05-11T12:00:41.878Z,22.20
2018-05-11T12:03:10.927Z,21.70
2018-05-11T12:05:39.931Z,22.20
2018-05-11T12:08:09.772Z,21.90
2018-05-11T12:10:38.779Z,21.80
2018-05-11T12:13:07.800Z,22.10
2018-05-11T12:15:36.858Z,22.00
2018-05-11T12:18:05.882Z,22.40
2018-05-11T12:20:34.918Z,22.80
2018-05-11T12:23:03.988Z,22.90
2018-05-11T12:25:33.025Z,22.60
2018-05-11T12:28:02.040Z,22.70
2018-05-11T12:30:31.081Z,22.80
2018-05-11T12:33:00.131Z,22.30
2018-05-11T12:35:29.155Z,22.70
2018-05-11T12:37:58.199Z,22.50
2018-05-11T12:43:36.531Z,22.50
2018-05-11T12:46:06.152Z,22.60
2018-05-11T12:48:35.167Z,22.20
2018-05-11T12:51:04.203Z,23.00
2018-05-11T12:53:33.987Z,23.20
2018-05-11T12:56:03.024Z,23.20
2018-05-11T12:58:32.075Z,23.50
2018-05-11T13:01:01.092Z,23.60
2018-05-11T13:03:30.136Z,23.60
2018-05-11T13:05:59.263Z,23.40
2018-05-11T13:08:28.336Z,23.60
2018-05-11T13:10:57.347Z,23.60
2018-05-11T13:13:26.407Z,23.70
2018-05-11T13:15:55.419Z,23.80
2018-05-11T13:18:24.430Z,23.90
2018-05-11T13:20:53.595Z,23.60
2018-05-11T13:23:22.532Z,23.30
2018-05-11T13:25:51.551Z,23.30
2018-05-11T13:28:20.658Z,23.80
2018-05-11T13:30:49.675Z,24.20
2018-05-11T13:33:18.692Z,24.50
2018-05-11T13:35:47.743Z,24.40
2018-05-11T13:38:16.782Z,24.90
2018-05-11T13:40:45.795Z,25.40
2018-05-11T13:43:14.836Z,25.80
2018-05-11T13:48:22.733Z,26.10
2018-05-11T13:50:51.734Z,27.00
2018-05-11T13:53:20.779Z,28.60
2018-05-11T13:55:49.826Z,28.30
2018-05-11T13:58:18.895Z,27.80
2018-05-11T14:00:47.920Z,27.30
2018-05-11T14:03:16.972Z,27.20
2018-05-11T14:05:45.999Z,28.30
2018-05-11T14:08:15.043Z,28.70
2018-05-11T14:10:44.080Z,29.10
2018-05-11T14:13:13.125Z,29.80
2018-05-11T14:15:42.903Z,30.90
2018-05-11T14:18:11.974Z,31.10
2018-05-11T14:20:40.988Z,31.70
2018-05-11T14:23:10.325Z,29.30
2018-05-11T14:25:39.535Z,28.70
2018-05-11T14:28:08.583Z,28.40
2018-05-11T14:30:37.609Z,28.10
2018-05-11T14:33:07.438Z,27.30
2018-05-11T14:35:36.486Z,27.40
2018-05-11T14:38:05.692Z,26.90
2018-05-11T14:40:34.709Z,26.50
2018-05-11T14:43:03.727Z,25.80
2018-05-11T14:45:32.834Z,25.20
2018-05-11T14:48:02.556Z,25.40
2018-05-11T14:50:31.599Z,25.10
2018-05-11T14:53:00.623Z,25.90
2018-05-11T14:55:29.675Z,25.90
2018-05-11T14:57:59.460Z,25.00
2018-05-11T15:00:28.503Z,24.80
2018-05-11T15:02:57.531Z,25.40
2018-05-11T15:05:26.582Z,25.40
2018-05-11T15:07:55.599Z,25.80
2018-05-11T15:10:24.659Z,26.20
2018-05-11T15:12:54.725Z,26.00
2018-05-11T15:15:23.922Z,25.70
2018-05-11T15:17:53.094Z,26.20
2018-05-11T15:20:22.282Z,26.30
2018-05-11T15:22:51.303Z,26.70
2018-05-11T15:25:20.355Z,27.00
2018-05-11T15:27:50.147Z,27.10
2018-05-11T15:30:19.438Z,27.60
2018-05-11T15:32:48.573Z,27.70
2018-05-11T15:35:18.467Z,28.00
2018-05-11T15:37:48.314Z,28.40
2018-05-11T15:40:18.200Z,28.50
2018-05-11T15:42:47.982Z,28.40
2018-05-11T15:45:17.072Z,28.60
2018-05-11T15:47:46.095Z,28.60
2018-05-11T15:50:15.882Z,27.80
2018-05-11T15:52:44.944Z,27.90
2018-05-11T15:55:13.999Z,27.00
2018-05-11T15:57:43.024Z,27.20
2018-05-11T16:00:13.205Z,26.00
2018-05-11T16:02:42.271Z,24.50
2018-05-11T16:05:11.400Z,23.90
2018-05-11T16:07:40.515Z,24.00
2018-05-11T16:10:09.543Z,23.90
2018-05-11T16:12:38.703Z,24.50
2018-05-11T16:15:07.628Z,25.30
2018-05-11T16:17:36.787Z,25.30
2018-05-11T16:20:05.815Z,25.40
2018-05-11T16:22:34.864Z,25.30
2018-05-11T16:25:04.646Z,24.90
2018-05-11T16:27:33.698Z,25.30
2018-05-11T16:30:02.716Z,25.20
2018-05-11T16:32:31.771Z,24.90
2018-05-11T16:35:00.791Z,25.00
2018-05-11T16:37:29.839Z,25.10
2018-05-11T16:39:59.630Z,25.50
2018-05-11T16:42:28.692Z,25.70
2018-05-11T16:44:57.716Z,26.00
2018-05-11T16:47:26.739Z,25.70
2018-05-11T16:49:56.545Z,25.10
2018-05-11T16:52:26.328Z,25.30
2018-05-11T16:54:55.374Z,25.60
2018-05-11T16:57:24.459Z,25.90
2018-05-11T16:59:54.247Z,25.70
2018-05-11T17:02:24.067Z,25.70
2018-05-11T17:04:53.868Z,25.10
2018-05-11T17:07:22.982Z,24.70
2018-05-11T17:09:52.013Z,24.70
2018-05-11T17:12:21.059Z,24.00
2018-05-11T17:14:50.894Z,23.20
2018-05-11T17:17:19.911Z,23.50
2018-05-11T17:19:48.964Z,23.30
2018-05-11T17:22:18.853Z,23.00
2018-05-11T17:24:47.898Z,23.00
2018-05-11T17:27:16.919Z,22.80
2018-05-11T17:29:45.969Z,22.40
2018-05-11T17:32:15.779Z,22.40
2018-05-11T17:34:45.563Z,21.80
2018-05-11T17:37:14.615Z,21.70
2018-05-11T17:39:43.643Z,21.70
2018-05-11T17:42:12.702Z,22.00
2018-05-11T17:44:41.710Z,21.80
2018-05-11T17:47:11.231Z,21.70
2018-05-11T17:49:40.258Z,21.60
2018-05-11T17:52:10.081Z,21.70
2018-05-11T17:54:40.102Z,21.60
2018-05-11T17:57:09.153Z,21.50
2018-05-11T17:59:38.971Z,21.50
2018-05-11T18:02:08.020Z,21.60
2018-05-11T18:04:37.044Z,21.40
2018-05-11T18:07:06.095Z,21.30
2018-05-11T18:09:35.184Z,20.90
2018-05-11T18:12:04.304Z,21.00
2018-05-11T18:14:34.052Z,20.50
2018-05-11T18:17:03.103Z,20.40
2018-05-11T18:19:32.115Z,20.10
2018-05-11T18:22:01.135Z,20.00
2018-05-11T18:24:30.187Z,19.70
2018-05-11T18:26:59.209Z,19.40
2018-05-11T18:29:28.255Z,19.30
2018-05-11T18:31:57.312Z,19.30
2018-05-11T18:34:26.331Z,19.20
2018-05-11T18:36:55.375Z,19.00
2018-05-11T18:39:24.394Z,18.70
2018-05-11T18:41:53.977Z,18.40
2018-05-11T18:44:23.987Z,18.20
2018-05-11T18:46:54.513Z,18.00
2018-05-11T18:52:00.016Z,17.80
2018-05-11T18:54:29.532Z,17.50
2018-05-11T18:59:49.650Z,17.10
2018-05-11T19:02:18.708Z,16.90
2018-05-11T19:04:47.990Z,16.90
2018-05-11T19:07:19.665Z,16.80
2018-05-11T19:09:48.691Z,16.90
2018-05-11T19:12:17.704Z,16.90
2018-05-11T19:14:46.787Z,16.80
2018-05-11T19:17:15.943Z,16.70
2018-05-11T19:19:45.070Z,16.50
2018-05-11T19:22:14.159Z,16.30
2018-05-11T19:24:43.936Z,16.20
2018-05-11T19:27:13.100Z,16.30
2018-05-11T19:29:42.228Z,16.30
2018-05-11T19:32:11.284Z,16.30
2018-05-11T19:34:40.306Z,15.90
2018-05-11T19:37:09.372Z,16.00
2018-05-11T19:39:38.636Z,15.90
2018-05-11T19:42:09.919Z,15.70
2018-05-11T19:44:39.664Z,15.60
2018-05-11T19:47:09.329Z,15.60
2018-05-11T19:49:38.568Z,15.60
2018-05-11T19:52:07.960Z,15.60
2018-05-11T19:54:37.501Z,15.60
2018-05-11T19:57:06.717Z,15.60
2018-05-11T19:59:36.293Z,15.40
2018-05-11T20:02:05.545Z,15.10
2018-05-11T20:04:34.992Z,15.30
2018-05-11T20:07:07.407Z,15.30
2018-05-11T20:09:36.879Z,15.20
2018-05-11T20:12:06.110Z,15.30
2018-05-11T20:14:35.443Z,15.10
2018-05-11T20:17:04.847Z,14.90
2018-05-11T20:19:34.164Z,14.90
2018-05-11T20:22:03.527Z,14.80
2018-05-11T20:24:32.905Z,14.70
2018-05-11T20:27:03.171Z,14.70
2018-05-11T20:29:32.827Z,14.70
2018-05-11T20:32:03.300Z,14.70
2018-05-11T20:34:33.752Z,14.60
2018-05-11T20:37:03.304Z,14.60
2018-05-11T20:39:32.613Z,14.40
2018-05-11T20:42:02.227Z,14.40
2018-05-11T20:44:32.008Z,14.40
2018-05-11T20:47:01.227Z,14.20
2018-05-11T20:49:30.529Z,14.30
2018-05-11T20:52:00.103Z,14.30
2018-05-11T20:54:29.396Z,14.30
2018-05-11T20:56:58.822Z,14.20
2018-05-11T20:59:28.472Z,14.30
2018-05-11T21:01:57.623Z,14.20
2018-05-11T21:04:27.277Z,13.90
2018-05-11T21:06:56.563Z,14.00
2018-05-11T21:09:25.993Z,13.90
2018-05-11T21:11:55.533Z,13.80
2018-05-11T21:14:26.131Z,13.80
2018-05-11T21:16:55.648Z,13.80
2018-05-11T21:19:25.155Z,13.80
2018-05-11T21:21:54.750Z,13.70
2018-05-11T21:24:24.241Z,13.70
2018-05-11T21:26:53.821Z,13.70
2018-05-11T21:29:23.401Z,13.60
2018-05-11T21:31:52.667Z,13.60
2018-05-11T21:34:22.249Z,13.50
2018-05-11T21:36:52.012Z,13.60
2018-05-11T21:39:21.248Z,13.50
2018-05-11T21:41:50.655Z,13.30
2018-05-11T21:44:20.112Z,13.40
2018-05-11T21:46:49.453Z,13.40
2018-05-11T21:49:19.353Z,13.40
2018-05-11T21:51:48.585Z,13.20
2018-05-11T21:54:18.020Z,13.10
2018-05-11T21:56:48.732Z,13.10
2018-05-11T21:59:18.239Z,13.10
2018-05-11T22:01:47.817Z,13.00
2018-05-11T22:04:17.421Z,13.10
2018-05-11T22:06:46.859Z,13.00
2018-05-11T22:09:16.015Z,13.10
2018-05-11T22:11:45.392Z,12.90
2018-05-11T22:14:14.619Z,12.90
2018-05-11T22:16:44.835Z,12.90
2018-05-11T22:19:14.168Z,12.90
2018-05-11T22:21:43.905Z,12.80
2018-05-11T22:24:13.105Z,12.90
2018-05-11T22:26:42.624Z,12.90
2018-05-11T22:29:12.882Z,12.70
2018-05-11T22:31:42.571Z,12.60
2018-05-11T22:34:12.447Z,12.80
2018-05-11T22:36:41.494Z,12.80
2018-05-11T22:39:10.519Z,12.90
2018-05-11T22:41:39.957Z,12.80
2018-05-11T22:44:09.843Z,12.80
2018-05-11T22:46:39.293Z,12.80
2018-05-11T22:49:08.627Z,12.80
2018-05-11T22:51:37.954Z,12.80
2018-05-11T22:54:07.415Z,12.70
2018-05-11T22:56:36.467Z,12.80
2018-05-11T22:59:06.812Z,12.60
2018-05-11T23:01:35.895Z,12.60
2018-05-11T23:04:05.584Z,12.70
2018-05-11T23:06:34.708Z,12.50
2018-05-11T23:09:03.767Z,12.70
2018-05-11T23:11:37.137Z,12.60
2018-05-11T23:14:06.541Z,12.60
2018-05-11T23:16:35.552Z,12.60
2018-05-11T23:19:05.066Z,12.60
2018-05-11T23:21:35.528Z,12.70
2018-05-11T23:24:05.000Z,12.70
2018-05-11T23:26:34.055Z,12.60
2018-05-11T23:29:03.552Z,12.60
2018-05-11T23:31:32.836Z,12.60
2018-05-11T23:34:01.934Z,12.60
2018-05-11T23:36:31.057Z,12.60
2018-05-11T23:39:00.107Z,12.60
2018-05-11T23:41:29.315Z,12.60
2018-05-11T23:43:58.385Z,12.60
2018-05-11T23:46:28.188Z,12.60
2018-05-11T23:48:57.248Z,12.60
2018-05-11T23:51:26.298Z,12.60
2018-05-11T23:53:56.190Z,12.60
2018-05-11T23:56:25.432Z,12.50
2018-05-11T23:58:54.483Z,12.50
